Time;durP1;ratioP1;P1;durP2;ratioP2;P2;SDS_P1;SDS_P2;PMS_P1;PMS_P2;Temp;Humidity;BMP_temperature;BMP_pressure;BME280_temperature;BME280_humidity;BME280_pressure;Samples;Min_cycle;Max_cycle;Signal;HPM_P1;HPM_P2
2022/06/17 00:00:53;;;;;;;4.80;4.40;;;;;;;22.51;67.60;99506.97;4875933;29;20492;-89
2022/06/17 00:03:20;;;;;;;5.05;4.45;;;;;;;22.46;68.24;99488.16;4871068;29;20044;-90
2022/06/17 00:05:46;;;;;;;6.72;5.03;;;;;;;22.45;68.52;99491.13;4876314;29;20037;-89
2022/06/17 00:08:18;;;;;;;5.43;4.97;;;;;;;22.38;68.92;99494.81;4876801;29;20052;-89
2022/06/17 00:10:43;;;;;;;5.10;4.68;;;;;;;22.34;69.49;99495.63;4854924;29;20093;-88
2022/06/17 00:13:16;;;;;;;5.35;4.85;;;;;;;22.30;68.90;99484.66;4861877;29;20029;-89
2022/06/17 00:15:42;;;;;;;6.03;4.60;;;;;;;22.30;69.31;99483.84;4853248;29;20118;-89
2022/06/17 00:18:08;;;;;;;4.85;4.43;;;;;;;22.26;69.04;99483.56;4857167;29;20037;-90
2022/06/17 00:20:34;;;;;;;6.60;4.47;;;;;;;22.21;68.69;99480.88;4860279;29;20436;-89
2022/06/17 00:23:02;;;;;;;4.97;4.47;;;;;;;22.15;69.56;99473.88;4856902;29;20454;-88
2022/06/17 00:25:45;;;;;;;4.75;4.32;;;;;;;22.04;69.12;99463.16;4871301;29;20612;-89
2022/06/17 00:28:14;;;;;;;5.55;4.20;;;;;;;22.08;69.40;99474.94;4890621;29;20479;-88
2022/06/17 00:30:40;;;;;;;4.97;4.25;;;;;;;22.06;69.85;99482.41;4853797;29;20040;-87
2022/06/17 00:33:06;;;;;;;6.53;4.47;;;;;;;21.86;69.67;99484.97;4873068;29;20035;-87
2022/06/17 00:35:39;;;;;;;4.75;4.10;;;;;;;21.85;69.68;99481.50;4871098;29;20116;-89
2022/06/17 00:38:09;;;;;;;4.60;4.22;;;;;;;21.79;70.85;99482.53;4885896;29;20029;-88
2022/06/17 00:40:35;;;;;;;4.78;4.38;;;;;;;21.76;69.92;99477.72;4870440;29;20404;-88
2022/06/17 00:43:05;;;;;;;7.18;4.55;;;;;;;21.76;71.08;99475.81;4889048;29;20038;-87
2022/06/17 00:45:37;;;;;;;5.45;4.53;;;;;;;21.74;70.53;99475.28;4854028;29;20035;-89
2022/06/17 00:48:12;;;;;;;5.18;4.10;;;;;;;21.72;70.23;99469.41;4871672;29;20032;-88
2022/06/17 00:51:05;;;;;;;6.38;4.18;;;;;;;21.64;70.64;99477.88;4889076;29;20024;-89
2022/06/17 00:53:38;;;;;;;11.55;4.82;;;;;;;21.59;71.00;99475.16;4885888;29;20044;-87
2022/06/17 00:56:13;;;;;;;7.05;4.57;;;;;;;21.49;72.16;99460.66;4872773;29;20066;-88
2022/06/17 00:59:01;;;;;;;4.85;4.45;;;;;;;21.46;72.47;99458.53;4853295;29;20029;-88
2022/06/17 01:01:31;;;;;;;6.88;4.75;;;;;;;21.40;73.91;99463.00;4852779;29;20029;-89
2022/06/17 01:04:00;;;;;;;6.43;5.15;;;;;;;21.30;73.61;99462.13;4851523;29;20044;-88
2022/06/17 01:06:32;;;;;;;6.05;4.72;;;;;;;21.31;73.98;99469.88;4856347;29;20040;-88
2022/06/17 01:11:56;;;;;;;5.95;4.97;;;;;;;21.19;75.18;99462.03;4884070;29;20024;-88
2022/06/17 01:14:23;;;;;;;5.38;4.75;;;;;;;21.17;75.22;99468.72;4886506;29;20029;-88
2022/06/17 01:16:50;;;;;;;5.35;4.85;;;;;;;21.13;75.52;99465.72;4888025;29;20036;-88
2022/06/17 01:19:45;;;;;;;4.85;4.40;;;;;;;21.14;75.56;99463.88;4851538;29;20482;-88
2022/06/17 01:22:20;;;;;;;5.82;4.68;;;;;;;21.08;76.29;99460.38;4867822;29;20483;-89
2022/06/17 01:24:47;;;;;;;5.45;4.40;;;;;;;21.07;76.62;99461.41;4872982;29;20033;-88
2022/06/17 01:27:17;;;;;;;5.20;4.80;;;;;;;20.95;76.54;99450.91;4856029;29;20060;-87
2022/06/17 01:29:42;;;;;;;4.88;4.47;;;;;;;20.91;76.98;99447.94;4869580;29;20037;-88
2022/06/17 01:32:10;;;;;;;7.45;4.80;;;;;;;20.94;76.63;99451.97;4865717;29;20456;-87
2022/06/17 01:34:36;;;;;;;5.45;4.95;;;;;;;20.90;76.81;99446.31;4870951;29;20055;-88
2022/06/17 01:37:04;;;;;;;5.05;4.45;;;;;;;20.90;76.77;99454.34;4884501;29;20093;-87
2022/06/17 01:39:29;;;;;;;4.78;4.38;;;;;;;20.82;76.92;99452.94;4869035;29;20033;-87
2022/06/17 01:41:55;;;;;;;5.15;4.53;;;;;;;20.84;76.79;99447.34;4886813;29;20033;-89
2022/06/17 01:44:33;;;;;;;6.05;4.28;;;;;;;20.86;76.88;99452.41;4871227;29;20029;-88
2022/06/17 01:47:03;;;;;;;5.43;4.85;;;;;;;20.86;76.84;99447.91;4870101;29;20124;-89
2022/06/17 01:49:53;;;;;;;4.50;4.20;;;;;;;20.93;76.95;99451.16;4855569;29;20037;-89
2022/06/17 01:52:31;;;;;;;6.07;4.90;;;;;;;20.96;76.52;99445.31;4852798;29;20365;-88
2022/06/17 01:55:05;;;;;;;5.80;4.15;;;;;;;20.93;76.65;99434.31;4872956;29;20041;-89
2022/06/17 01:57:42;;;;;;;5.75;4.20;;;;;;;20.97;76.69;99438.13;4871857;29;20036;-89
2022/06/17 02:00:16;;;;;;;6.00;4.18;;;;;;;20.95;76.88;99430.34;4869129;29;20500;-89
2022/06/17 02:02:45;;;;;;;4.50;4.10;;;;;;;20.94;75.92;99431.41;4867664;29;20479;-86
2022/06/17 02:05:11;;;;;;;4.53;4.13;;;;;;;20.97;77.15;99427.44;4849473;29;20181;-90
2022/06/17 02:07:41;;;;;;;5.10;4.18;;;;;;;20.89;76.34;99418.03;4849734;29;20049;-89
2022/06/17 02:10:07;;;;;;;4.40;4.00;;;;;;;20.71;74.87;99413.03;4857814;29;20415;-89
2022/06/17 02:12:34;;;;;;;4.50;4.18;;;;;;;20.83;75.17;99411.03;4850870;29;20528;-90
2022/06/17 02:15:01;;;;;;;6.82;4.30;;;;;;;20.80;74.11;99412.34;4859851;29;20073;-90
2022/06/17 02:17:31;;;;;;;4.20;3.90;;;;;;;20.82;73.13;99396.06;4853377;29;20033;-88
2022/06/17 02:19:57;;;;;;;4.43;4.00;;;;;;;20.86;73.10;99399.88;4868398;29;20037;-88
2022/06/17 02:22:29;;;;;;;4.18;3.88;;;;;;;20.88;71.27;99400.41;4872574;29;20407;-88
2022/06/17 02:24:59;;;;;;;4.95;3.80;;;;;;;20.80;69.89;99400.88;4872963;29;20029;-88
2022/06/17 02:27:26;;;;;;;4.90;3.85;;;;;;;20.81;69.64;99411.28;4856676;29;20119;-88
2022/06/17 02:29:53;;;;;;;3.83;3.53;;;;;;;20.74;69.77;99397.34;4871282;29;20068;-87
2022/06/17 02:32:19;;;;;;;4.38;3.97;;;;;;;20.88;69.51;99395.09;4889419;29;20108;-88
2022/06/17 02:35:00;;;;;;;4.15;3.65;;;;;;;20.90;68.74;99386.81;4888676;29;20093;-88
2022/06/17 02:37:27;;;;;;;3.70;3.40;;;;;;;20.91;68.28;99391.09;4872861;29;20037;-88
2022/06/17 02:39:57;;;;;;;5.75;3.47;;;;;;;20.59;67.75;99395.31;4856772;29;20101;-87
2022/06/17 02:42:26;;;;;;;3.88;3.58;;;;;;;20.72;68.14;99396.75;4888845;29;20033;-87
2022/06/17 02:44:59;;;;;;;4.65;3.70;;;;;;;20.80;67.63;99400.88;4891698;29;20567;-86
2022/06/17 02:47:26;;;;;;;3.88;3.58;;;;;;;20.96;67.93;99391.94;4873244;29;20118;-87
2022/06/17 02:49:53;;;;;;;4.38;3.97;;;;;;;20.94;68.17;99391.38;4873126;29;20386;-86
2022/06/17 02:52:27;;;;;;;4.25;3.85;;;;;;;20.94;68.28;99383.38;4889609;29;20471;-87
2022/06/17 02:54:58;;;;;;;4.70;3.80;;;;;;;21.01;68.49;99379.69;4871402;29;20104;-87
2022/06/17 02:57:28;;;;;;;4.10;3.75;;;;;;;21.02;69.14;99384.78;4891055;29;20063;-86
2022/06/17 03:00:02;;;;;;;6.10;3.67;;;;;;;20.97;68.95;99380.19;4870067;29;20482;-88
2022/06/17 03:02:54;;;;;;;5.20;3.78;;;;;;;20.94;69.22;99374.59;4874257;29;20124;-90
2022/06/17 03:05:28;;;;;;;4.85;3.70;;;;;;;20.96;69.13;99380.47;4848139;29;20128;-88
2022/06/17 03:07:56;;;;;;;4.45;3.75;;;;;;;20.95;69.29;99377.00;4869536;29;20041;-88
2022/06/17 03:10:33;;;;;;;4.28;3.80;;;;;;;20.89;69.56;99366.53;4869219;29;20047;-87
2022/06/17 03:13:08;;;;;;;6.57;4.10;;;;;;;20.91;69.44;99365.22;4874152;29;20032;-88
2022/06/17 03:15:37;;;;;;;4.78;4.20;;;;;;;20.86;69.46;99362.53;4875048;29;20041;-89
2022/06/17 03:18:03;;;;;;;4.18;3.88;;;;;;;20.89;69.40;99361.19;4871744;29;20127;-88
2022/06/17 03:20:34;;;;;;;6.40;4.32;;;;;;;20.79;70.23;99361.88;4888541;29;20063;-88
2022/06/17 03:23:13;;;;;;;4.70;3.90;;;;;;;20.88;70.09;99349.72;4872236;29;21167;-87
2022/06/17 03:25:44;;;;;;;4.28;3.88;;;;;;;20.93;69.89;99352.44;4873379;29;20029;-87
2022/06/17 03:28:14;;;;;;;4.68;4.20;;;;;;;20.90;69.88;99347.59;4872359;29;20036;-88
2022/06/17 03:30:49;;;;;;;5.93;3.63;;;;;;;20.97;69.73;99358.06;4872768;29;20029;-88
2022/06/17 03:33:22;;;;;;;8.63;4.05;;;;;;;20.94;69.95;99346.03;4891133;29;20041;-87
2022/06/17 03:35:52;;;;;;;4.43;3.70;;;;;;;21.01;70.24;99342.34;4855225;29;20036;-87
2022/06/17 03:38:46;;;;;;;6.07;4.00;;;;;;;20.95;69.94;99339.63;4875145;29;20132;-88
2022/06/17 03:41:21;;;;;;;4.50;3.58;;;;;;;21.07;70.16;99336.00;4870450;29;20256;-87
2022/06/17 03:44:04;;;;;;;4.45;4.00;;;;;;;21.06;69.88;99329.03;4881394;29;20036;-89
2022/06/17 03:46:36;;;;;;;4.90;3.90;;;;;;;21.06;70.42;99329.84;4873586;29;20036;-87
2022/06/17 03:49:06;;;;;;;3.83;3.60;;;;;;;21.05;70.57;99322.88;4870451;29;20124;-88
2022/06/17 03:51:35;;;;;;;4.00;3.60;;;;;;;21.06;70.50;99323.69;4854227;29;20089;-87
2022/06/17 03:54:01;;;;;;;3.78;3.47;;;;;;;21.04;70.37;99309.81;4860637;29;20037;-88
2022/06/17 03:56:34;;;;;;;5.03;4.22;;;;;;;20.97;70.41;99313.50;4859913;29;20096;-88
2022/06/17 03:59:04;;;;;;;4.27;3.87;;;;;;;20.86;71.04;99303.81;4872332;29;20085;-87
2022/06/17 04:01:47;;;;;;;4.40;3.95;;;;;;;20.97;70.65;99304.69;4877635;29;20033;-86
2022/06/17 04:04:17;;;;;;;4.15;3.53;;;;;;;21.08;70.87;99316.25;4876232;29;20159;-87
2022/06/17 04:06:46;;;;;;;4.70;3.83;;;;;;;21.11;70.82;99307.72;4886565;29;20033;-87
2022/06/17 04:09:30;;;;;;;4.75;4.20;;;;;;;21.10;70.31;99303.44;4871318;29;20449;-89
2022/06/17 04:12:00;;;;;;;4.30;4.00;;;;;;;21.11;70.49;99299.72;4884118;29;20093;-90
2022/06/17 04:15:03;;;;;;;4.70;4.30;;;;;;;21.14;69.96;99309.88;4872330;29;20052;-88
2022/06/17 04:17:35;;;;;;;5.95;3.95;;;;;;;21.18;69.89;99313.63;4874180;29;20487;-88
2022/06/17 04:20:22;;;;;;;5.65;4.28;;;;;;;21.24;70.33;99315.28;4868434;29;20153;-88
2022/06/17 04:22:52;;;;;;;4.60;4.20;;;;;;;21.26;70.64;99321.16;4888979;29;20037;-86
2022/06/17 04:25:28;;;;;;;4.70;4.30;;;;;;;21.20;70.94;99321.38;4871763;29;20032;-86
2022/06/17 04:27:58;;;;;;;6.03;4.22;;;;;;;21.28;70.88;99320.88;4855879;29;20139;-89
2022/06/17 04:30:37;;;;;;;6.80;4.28;;;;;;;21.12;71.21;99309.31;4889269;29;20040;-87
2022/06/17 04:33:11;;;;;;;5.15;4.10;;;;;;;21.18;71.21;99310.94;4870136;29;20032;-88
2022/06/17 04:35:37;;;;;;;4.30;3.92;;;;;;;21.21;71.30;99318.44;4885095;29;20041;-88
2022/06/17 04:38:03;;;;;;;7.25;4.22;;;;;;;21.15;71.91;99311.47;4888147;29;20189;-88
2022/06/17 04:40:40;;;;;;;4.40;4.03;;;;;;;21.28;71.67;99320.09;4889475;29;20037;-86
2022/06/17 04:43:18;;;;;;;6.18;4.55;;;;;;;21.17;71.73;99298.66;4887543;29;20148;-87
2022/06/17 04:45:57;;;;;;;6.93;4.65;;;;;;;21.25;72.03;99303.53;4856511;29;20032;-87
2022/06/17 04:48:23;;;;;;;5.07;4.00;;;;;;;21.25;72.49;99314.22;4857511;29;20051;-88
2022/06/17 04:50:49;;;;;;;4.78;4.20;;;;;;;21.29;72.40;99300.34;4870219;29;20384;-88
2022/06/17 04:53:16;;;;;;;5.75;4.47;;;;;;;21.32;72.18;99294.47;4871021;29;20025;-87
2022/06/17 04:55:44;;;;;;;5.57;4.90;;;;;;;21.30;71.89;99286.72;4884816;29;20395;-87
2022/06/17 04:58:19;;;;;;;7.40;4.60;;;;;;;21.42;71.98;99289.19;4888772;29;20036;-88
2022/06/17 05:00:48;;;;;;;7.40;4.90;;;;;;;21.46;71.76;99284.94;4884342;29;20419;-88
2022/06/17 05:03:14;;;;;;;7.35;4.60;;;;;;;21.37;71.29;99297.16;4872568;29;20495;-88
2022/06/17 05:05:44;;;;;;;5.00;4.50;;;;;;;21.71;70.74;99291.47;4870983;29;20475;-86
2022/06/17 05:08:34;;;;;;;5.07;4.50;;;;;;;21.74;70.44;99293.59;4887417;29;20045;-86
2022/06/17 05:11:48;;;;;;;7.57;4.30;;;;;;;21.68;68.97;99298.13;4851442;29;20495;-87
2022/06/17 05:14:36;;;;;;;7.10;4.73;;;;;;;21.77;67.99;99301.09;4848809;29;20079;-88
2022/06/17 05:17:02;;;;;;;5.68;4.03;;;;;;;21.94;66.99;99295.53;4841916;29;20040;-88
2022/06/17 05:19:28;;;;;;;5.15;4.13;;;;;;;21.80;66.52;99300.56;4887716;29;20391;-88
2022/06/17 05:21:54;;;;;;;6.03;4.05;;;;;;;22.11;66.03;99295.31;4888658;29;20044;-88
2022/06/17 05:24:20;;;;;;;6.72;4.40;;;;;;;21.57;66.12;99288.47;4888673;29;20032;-88
2022/06/17 05:26:46;;;;;;;4.35;3.92;;;;;;;21.83;65.33;99284.03;4889516;29;20028;-88
2022/06/17 05:29:11;;;;;;;4.43;4.03;;;;;;;22.09;65.46;99292.09;4868133;29;20124;-87
2022/06/17 05:31:38;;;;;;;6.43;4.40;;;;;;;22.20;64.75;99286.75;4868469;29;20120;-88
2022/06/17 05:34:05;;;;;;;6.95;4.20;;;;;;;22.25;64.52;99289.44;4888605;29;20093;-87
2022/06/17 05:36:31;;;;;;;5.25;3.95;;;;;;;22.13;63.34;99283.53;4867123;29;20049;-87
2022/06/17 05:38:58;;;;;;;5.25;4.10;;;;;;;22.28;63.85;99278.22;4885151;29;20037;-85
2022/06/17 05:41:24;;;;;;;8.98;4.20;;;;;;;22.44;63.39;99264.84;4867279;29;20033;-88
2022/06/17 05:43:51;;;;;;;7.32;4.03;;;;;;;22.35;63.93;99284.09;4871332;29;20033;-89
2022/06/17 05:46:18;;;;;;;4.78;4.15;;;;;;;22.52;64.93;99280.38;4890605;29;20084;-90
2022/06/17 05:48:45;;;;;;;5.38;4.35;;;;;;;22.33;65.57;99291.59;4871859;29;20373;-88
2022/06/17 05:51:12;;;;;;;4.70;4.30;;;;;;;22.47;65.28;99275.03;4859448;29;20036;-89
2022/06/17 05:53:38;;;;;;;5.68;4.45;;;;;;;22.38;66.05;99288.13;4870367;29;20043;-90
2022/06/17 05:56:05;;;;;;;5.00;4.05;;;;;;;22.54;65.58;99288.94;4869009;29;20519;-87
2022/06/17 05:58:31;;;;;;;6.18;4.30;;;;;;;22.59;64.75;99286.25;4850132;29;20987;-85
2022/06/17 06:00:57;;;;;;;4.75;3.88;;;;;;;22.89;63.92;99290.00;4872674;29;20094;-85
2022/06/17 06:03:26;;;;;;;6.22;4.35;;;;;;;22.91;63.55;99290.50;4890869;29;20033;-88
2022/06/17 06:05:52;;;;;;;5.65;4.07;;;;;;;23.07;63.44;99293.97;4872115;29;20040;-85
2022/06/17 06:08:18;;;;;;;6.65;4.20;;;;;;;23.15;62.85;99289.94;4855411;29;20503;-84
2022/06/17 06:10:46;;;;;;;7.95;4.25;;;;;;;23.09;62.77;99281.13;4855373;29;20124;-85
2022/06/17 06:13:22;;;;;;;4.20;3.80;;;;;;;23.50;62.97;99282.88;4891592;29;20029;-83
2022/06/17 06:15:53;;;;;;;6.95;4.40;;;;;;;23.68;64.23;99280.66;4859752;29;20033;-85
2022/06/17 06:18:25;;;;;;;4.78;4.20;;;;;;;23.93;63.94;99273.53;4887751;29;20104;-85
2022/06/17 06:20:51;;;;;;;5.27;4.50;;;;;;;23.99;63.61;99260.91;4869577;29;20447;-84
2022/06/17 06:23:17;;;;;;;5.90;4.10;;;;;;;23.88;63.85;99262.84;4857531;29;20375;-85
2022/06/17 06:25:43;;;;;;;5.55;4.07;;;;;;;24.08;63.96;99268.13;4877644;29;20123;-88
2022/06/17 06:28:10;;;;;;;5.57;4.18;;;;;;;23.98;62.37;99265.50;4860456;29;20037;-88
2022/06/17 06:30:37;;;;;;;6.10;4.10;;;;;;;24.18;63.09;99266.44;4874818;29;20128;-87
2022/06/17 06:33:18;;;;;;;4.88;4.13;;;;;;;24.37;63.21;99259.31;4865084;29;20075;-86
2022/06/17 06:35:45;;;;;;;5.47;4.18;;;;;;;24.33;61.90;99258.25;4858887;29;20375;-89
2022/06/17 06:38:11;;;;;;;5.85;4.30;;;;;;;24.47;62.33;99252.25;4874075;29;20040;-89
2022/06/17 06:40:36;;;;;;;4.47;4.07;;;;;;;24.46;60.99;99256.03;4860599;29;20135;-89
2022/06/17 06:43:03;;;;;;;7.00;4.38;;;;;;;24.52;62.56;99258.38;4863052;29;20033;-90
2022/06/17 06:45:31;;;;;;;5.53;4.25;;;;;;;24.72;61.58;99269.19;4860332;29;20067;-89
2022/06/17 06:48:01;;;;;;;6.28;4.45;;;;;;;24.67;61.15;99254.75;4891940;29;20093;-88
2022/06/17 06:50:29;;;;;;;8.25;4.57;;;;;;;24.76;59.93;99257.66;4874137;29;20392;-88
2022/06/17 06:52:55;;;;;;;5.72;4.43;;;;;;;24.75;60.19;99245.31;4871832;29;20041;-87
2022/06/17 06:55:22;;;;;;;7.18;4.45;;;;;;;24.54;60.27;99252.72;4890028;29;20051;-86
2022/06/17 06:57:54;;;;;;;5.68;4.25;;;;;;;24.58;60.57;99248.41;4885412;29;20040;-85
2022/06/17 07:00:35;;;;;;;7.93;4.43;;;;;;;24.35;59.92;99255.31;4892905;29;20041;-83
2022/06/17 07:03:01;;;;;;;8.30;4.50;;;;;;;24.44;60.36;99260.88;4894972;29;20098;-87
2022/06/17 07:05:27;;;;;;;5.80;4.30;;;;;;;24.10;60.60;99255.22;4869848;29;20039;-82
2022/06/17 07:07:54;;;;;;;4.72;4.22;;;;;;;24.33;60.01;99260.94;4872716;29;20052;-89
2022/06/17 07:10:26;;;;;;;8.40;4.40;;;;;;;24.38;59.76;99258.25;4872789;29;20041;-87
2022/06/17 07:12:54;;;;;;;5.63;4.30;;;;;;;24.25;60.34;99264.25;4862422;29;20052;-89
2022/06/17 07:15:20;;;;;;;8.30;4.55;;;;;;;24.20;59.98;99256.25;4889015;29;20119;-86
2022/06/17 07:18:13;;;;;;;9.35;4.30;;;;;;;24.13;61.19;99253.88;4891862;29;20094;-81
2022/06/17 07:20:42;;;;;;;8.83;4.83;;;;;;;23.99;61.01;99245.63;4868523;29;20409;-84
2022/06/17 07:23:34;;;;;;;5.18;4.63;;;;;;;24.01;61.04;99239.97;4853758;29;20038;-83
2022/06/17 07:26:02;;;;;;;5.60;4.72;;;;;;;24.23;61.45;99236.91;4849187;29;20036;-83
2022/06/17 07:28:28;;;;;;;5.55;4.93;;;;;;;24.07;60.79;99231.66;4869780;29;20066;-90
2022/06/17 07:30:56;;;;;;;11.88;4.93;;;;;;;24.13;60.98;99224.38;4890703;29;20036;-89
2022/06/17 07:33:24;;;;;;;8.75;4.80;;;;;;;24.14;60.81;99214.44;4859443;29;20024;-90
2022/06/17 07:35:53;;;;;;;6.38;4.72;;;;;;;24.29;60.86;99203.59;4888390;29;20120;-92
2022/06/17 07:41:10;;;;;;;7.60;5.38;;;;;;;24.36;60.44;99196.00;4888060;29;20033;-91
2022/06/17 07:43:36;;;;;;;6.30;4.70;;;;;;;24.68;61.35;99202.69;4873398;29;20120;-90
2022/06/17 07:46:03;;;;;;;10.23;5.18;;;;;;;24.51;60.72;99205.00;4886325;29;20116;-89
2022/06/17 07:48:29;;;;;;;4.85;4.45;;;;;;;24.33;61.55;99199.25;4886503;29;20502;-90
2022/06/17 07:50:58;;;;;;;7.15;4.60;;;;;;;24.41;61.61;99207.78;4872574;29;20024;-88
2022/06/17 07:53:30;;;;;;;8.20;4.85;;;;;;;24.14;61.31;99203.72;4870428;29;20037;-90
2022/06/17 07:55:58;;;;;;;9.50;5.13;;;;;;;24.16;61.61;99198.88;4874846;29;20069;-87
2022/06/17 07:58:24;;;;;;;6.10;4.55;;;;;;;24.24;62.80;99207.09;4872772;29;20040;-89
2022/06/17 08:00:50;;;;;;;5.03;4.60;;;;;;;24.13;61.76;99183.34;4858167;29;20032;-90
2022/06/17 08:03:18;;;;;;;6.80;5.03;;;;;;;24.18;62.76;99194.03;4872643;29;20040;-90
2022/06/17 08:05:47;;;;;;;5.53;4.88;;;;;;;24.19;62.70;99188.38;4858251;29;20048;-81
2022/06/17 08:08:21;;;;;;;5.60;4.55;;;;;;;24.24;62.75;99200.97;4885216;29;20112;-83
2022/06/17 08:10:50;;;;;;;5.55;4.47;;;;;;;24.48;62.63;99190.28;4885028;29;20035;-82
2022/06/17 08:13:16;;;;;;;9.63;4.95;;;;;;;24.31;61.42;99195.28;4870193;29;20479;-82
2022/06/17 08:15:42;;;;;;;7.55;4.20;;;;;;;24.74;61.77;99191.88;4867874;29;20040;-82
2022/06/17 08:18:11;;;;;;;9.18;4.90;;;;;;;24.92;61.09;99190.38;4884940;29;20415;-84
2022/06/17 08:20:37;;;;;;;8.73;4.03;;;;;;;24.79;60.46;99176.56;4891807;29;20032;-83
2022/06/17 08:23:05;;;;;;;5.18;4.68;;;;;;;24.97;60.17;99174.19;4887485;29;20501;-83
2022/06/17 08:25:33;;;;;;;5.15;4.60;;;;;;;24.87;58.50;99177.81;4882367;29;20040;-84
2022/06/17 08:28:02;;;;;;;9.75;4.93;;;;;;;24.58;58.62;99181.31;4885224;29;20487;-84
2022/06/17 08:30:32;;;;;;;6.47;4.40;;;;;;;24.46;57.35;99175.53;4870730;29;20029;-83
2022/06/17 08:32:58;;;;;;;8.57;4.50;;;;;;;24.57;58.34;99173.56;4886108;29;20043;-83
2022/06/17 08:35:48;;;;;;;8.50;4.53;;;;;;;24.90;58.53;99179.91;4869640;29;20461;-83
2022/06/17 08:38:22;;;;;;;6.97;4.35;;;;;;;25.06;58.81;99177.06;4873646;29;20040;-84
2022/06/17 08:40:51;;;;;;;11.38;4.60;;;;;;;25.06;58.50;99167.13;4872586;29;20510;-84
2022/06/17 08:43:38;;;;;;;8.38;4.82;;;;;;;24.98;57.71;99164.28;4884877;29;20480;-84
2022/06/17 08:46:37;;;;;;;7.03;4.38;;;;;;;25.05;57.61;99159.34;4873328;29;20033;-84
2022/06/17 08:49:14;;;;;;;12.07;4.68;;;;;;;25.04;58.01;99163.13;4867655;29;20493;-84
2022/06/17 08:51:50;;;;;;;7.35;4.22;;;;;;;25.10;57.27;99167.31;4869602;29;20037;-84
2022/06/17 08:54:23;;;;;;;8.15;4.38;;;;;;;25.60;58.62;99168.84;4888451;29;20042;-84
2022/06/17 08:57:06;;;;;;;7.43;4.70;;;;;;;25.43;58.13;99159.38;4870389;29;20044;-84
2022/06/17 08:59:44;;;;;;;6.93;5.28;;;;;;;25.77;58.50;99154.88;4888610;29;20056;-85
2022/06/17 09:02:33;;;;;;;7.28;4.53;;;;;;;25.44;57.49;99158.28;4885515;29;20024;-84
2022/06/17 09:05:16;;;;;;;7.78;4.50;;;;;;;25.74;58.70;99155.44;4890598;29;20083;-83
2022/06/17 09:08:03;;;;;;;7.75;4.88;;;;;;;25.84;56.59;99152.59;4888077;29;20403;-84
2022/06/17 09:10:44;;;;;;;13.43;4.80;;;;;;;25.88;57.15;99152.81;4889833;29;20029;-83
2022/06/17 09:13:31;;;;;;;9.43;4.47;;;;;;;25.85;54.85;99142.66;4885587;29;20029;-84
2022/06/17 09:16:19;;;;;;;7.85;4.55;;;;;;;25.87;54.68;99145.84;4885775;29;20036;-83
2022/06/17 09:18:50;;;;;;;9.88;4.78;;;;;;;26.28;55.42;99133.63;4882369;29;20029;-85
2022/06/17 09:21:22;;;;;;;7.18;4.95;;;;;;;26.21;55.36;99147.44;4889088;29;20028;-84
2022/06/17 09:23:50;;;;;;;11.13;4.72;;;;;;;25.98;54.96;99146.47;4871302;29;20387;-82
2022/06/17 09:26:27;;;;;;;10.85;4.35;;;;;;;25.80;54.13;99133.56;4871307;29;20072;-84
2022/06/17 09:29:02;;;;;;;10.65;4.97;;;;;;;26.05;53.54;99123.47;4884604;29;20096;-84
2022/06/17 09:31:37;;;;;;;6.43;4.32;;;;;;;25.85;54.93;99132.69;4883580;29;20032;-85
2022/06/17 09:34:25;;;;;;;8.88;4.78;;;;;;;26.33;54.95;99131.59;4885348;29;20025;-86
2022/06/17 09:37:31;;;;;;;9.90;4.93;;;;;;;26.09;55.03;99132.53;4889885;29;20041;-86
2022/06/17 09:40:02;;;;;;;6.18;4.53;;;;;;;25.95;54.21;99120.97;4827505;29;20069;-86
2022/06/17 09:42:40;;;;;;;7.60;4.35;;;;;;;26.02;55.57;99121.38;4874967;29;20402;-84
2022/06/17 09:45:26;;;;;;;7.50;4.72;;;;;;;26.47;55.21;99120.06;4885400;29;20073;-85
2022/06/17 09:48:13;;;;;;;6.65;4.32;;;;;;;26.48;54.63;99121.66;4884663;29;20464;-85
2022/06/17 09:50:48;;;;;;;9.80;4.30;;;;;;;26.38;54.44;99118.06;4869097;29;20061;-85
2022/06/17 09:53:19;;;;;;;11.80;4.88;;;;;;;26.63;54.02;99118.66;4888240;29;20156;-85
2022/06/17 09:56:22;;;;;;;6.45;4.60;;;;;;;26.45;53.43;99119.56;4867917;29;20029;-89
2022/06/17 09:59:17;;;;;;;6.88;4.25;;;;;;;27.09;53.69;99111.56;4862582;29;20191;-91
2022/06/17 10:01:44;;;;;;;8.93;4.32;;;;;;;27.79;54.15;99110.50;4819629;29;20080;-91
2022/06/17 10:04:11;;;;;;;7.57;4.32;;;;;;;27.16;52.71;99113.03;4870780;29;20037;-90
2022/06/17 10:06:53;;;;;;;5.80;4.45;;;;;;;27.60;52.54;99099.91;4854333;29;20033;-90
2022/06/17 10:09:29;;;;;;;7.32;4.47;;;;;;;27.87;51.90;99115.16;4882808;29;20076;-89
2022/06/17 10:12:04;;;;;;;7.88;4.47;;;;;;;28.20;52.98;99119.47;4853078;29;20075;-91
2022/06/17 10:14:38;;;;;;;7.90;4.70;;;;;;;27.99;51.16;99119.19;4884784;29;20470;-90
2022/06/17 10:20:37;;;;;;;8.00;4.90;;;;;;;27.63;53.40;99110.91;4888728;29;20028;-90
2022/06/17 10:23:09;;;;;;;9.82;5.00;;;;;;;27.62;53.62;99121.97;4877548;29;20051;-90
2022/06/17 10:26:19;;;;;;;5.30;4.53;;;;;;;28.27;53.12;99122.50;4885954;29;20441;-88
2022/06/17 10:29:12;;;;;;;9.30;5.00;;;;;;;27.92;53.55;99112.31;4848037;29;20190;-88
2022/06/17 10:31:42;;;;;;;7.38;5.15;;;;;;;28.08;54.33;99110.03;4882840;29;20041;-88
2022/06/17 10:34:13;;;;;;;6.72;5.10;;;;;;;27.70;54.38;99104.25;4868883;29;20037;-90
2022/06/17 10:36:43;;;;;;;9.82;4.78;;;;;;;28.28;55.63;99093.63;4884981;29;20104;-90
2022/06/17 10:39:12;;;;;;;6.68;4.80;;;;;;;28.47;54.26;99085.28;4888756;29;20036;-89
2022/06/17 10:41:42;;;;;;;9.75;5.20;;;;;;;28.29;53.88;99077.13;4888023;29;20417;-89
2022/06/17 10:44:14;;;;;;;9.40;5.07;;;;;;;27.48;54.95;99081.59;4870192;29;20029;-89
2022/06/17 10:46:44;;;;;;;9.95;4.80;;;;;;;28.35;54.51;99086.69;4887812;29;20033;-90
2022/06/17 10:49:21;;;;;;;11.18;5.10;;;;;;;28.91;54.22;99086.19;4871112;29;20088;-89
2022/06/17 10:51:50;;;;;;;8.57;5.30;;;;;;;28.76;53.87;99090.09;4890299;29;20033;-87
2022/06/17 10:54:25;;;;;;;9.65;5.15;;;;;;;28.96;53.97;99084.44;4874602;29;20491;-89
2022/06/17 10:57:06;;;;;;;11.40;5.28;;;;;;;29.47;54.86;99085.56;4873109;29;20032;-89
2022/06/17 10:59:36;;;;;;;8.95;5.20;;;;;;;29.50;54.28;99076.03;4874620;29;20055;-89
2022/06/17 11:02:02;;;;;;;7.05;5.50;;;;;;;29.60;53.43;99062.19;4889668;29;20077;-89
2022/06/17 11:04:34;;;;;;;12.25;5.68;;;;;;;29.40;54.83;99069.00;4877804;29;20522;-90
2022/06/17 11:07:15;;;;;;;7.22;5.60;;;;;;;29.98;55.05;99066.03;4855592;29;20059;-91
2022/06/17 11:09:49;;;;;;;6.90;5.28;;;;;;;29.37;53.85;99066.94;4888484;29;20120;-90
2022/06/17 11:12:21;;;;;;;6.65;4.90;;;;;;;29.33;54.29;99068.72;4871392;29;20021;-89
2022/06/17 11:14:47;;;;;;;8.63;5.45;;;;;;;29.61;54.50;99084.59;4874068;29;20063;-89
2022/06/17 11:17:18;;;;;;;8.60;5.78;;;;;;;29.68;53.47;99068.69;4872985;29;20037;-89
2022/06/17 11:19:47;;;;;;;11.55;5.53;;;;;;;29.90;53.73;99069.56;4886021;29;20547;-90
2022/06/17 11:22:24;;;;;;;10.90;5.78;;;;;;;30.01;54.05;99056.47;4888674;29;20444;-88
2022/06/17 11:24:56;;;;;;;8.77;5.95;;;;;;;30.36;54.33;99069.84;4872533;29;20033;-89
2022/06/17 11:27:38;;;;;;;15.00;6.05;;;;;;;29.58;55.29;99069.00;4874247;29;20037;-91
2022/06/17 11:30:31;;;;;;;13.68;5.90;;;;;;;30.04;54.40;99072.88;4884571;29;20037;-88
2022/06/17 11:32:59;;;;;;;11.53;5.40;;;;;;;29.77;54.38;99072.16;4838314;29;20143;-90
2022/06/17 11:35:36;;;;;;;13.55;5.93;;;;;;;30.42;54.81;99067.78;4871351;29;20312;-89
2022/06/17 11:38:09;;;;;;;13.73;5.90;;;;;;;30.37;54.53;99070.66;4869832;29;20060;-90
2022/06/17 11:40:47;;;;;;;11.27;5.65;;;;;;;30.42;54.69;99063.16;4890397;29;20491;-89
2022/06/17 11:43:26;;;;;;;10.90;5.53;;;;;;;30.65;54.18;99065.59;4889091;29;20033;-89
2022/06/17 11:45:52;;;;;;;9.35;6.05;;;;;;;30.54;54.54;99061.63;4855743;29;20496;-90
2022/06/17 11:48:20;;;;;;;14.10;5.90;;;;;;;30.38;55.33;99056.00;4888036;29;20040;-89
2022/06/17 11:51:10;;;;;;;12.77;6.68;;;;;;;30.28;55.16;99062.59;4890250;29;20067;-88
2022/06/17 11:53:54;;;;;;;13.35;6.57;;;;;;;30.53;54.54;99052.75;4887132;29;20090;-89
2022/06/17 11:56:36;;;;;;;11.02;6.20;;;;;;;30.94;54.31;99049.59;4871291;29;20051;-87
2022/06/17 11:59:08;;;;;;;12.00;6.45;;;;;;;31.38;53.94;99041.13;4889102;29;20375;-90
2022/06/17 12:01:35;;;;;;;16.08;6.00;;;;;;;30.50;54.63;99048.75;4887438;29;20044;-88
2022/06/17 12:04:01;;;;;;;10.40;5.85;;;;;;;31.45;54.78;99047.59;4890931;29;20116;-88
2022/06/17 12:06:31;;;;;;;7.97;6.00;;;;;;;31.91;54.38;99035.94;4887813;29;20072;-88